Time;durP1;ratioP1;P1;durP2;ratioP2;P2;SDS_P1;SDS_P2;PMS_P1;PMS_P2;Temp;Humidity;BMP_temperature;BMP_pressure;BME280_temperature;BME280_humidity;BME280_pressure;Samples;Min_cycle;Max_cycle;Signal;HPM_P1;HPM_P2
2021/06/07 00:01:08;;;;;;;;;9.33;9.33;;;;;24.79;45.70;101842.19;5001999;28;52165;-59
2021/06/07 00:03:33;;;;;;;;;11.67;11.67;;;;;24.79;45.75;101841.28;4999132;28;46257;-59
2021/06/07 00:05:59;;;;;;;;;12.33;12.33;;;;;24.79;46.03;101836.88;4999420;28;45205;-59
2021/06/07 00:08:24;;;;;;;;;10.33;10.33;;;;;24.78;45.71;101839.56;5000220;28;45426;-59
2021/06/07 00:10:50;;;;;;;;;14.00;12.00;;;;;24.78;45.83;101835.13;5002167;28;45222;-58
2021/06/07 00:13:15;;;;;;;;;13.00;12.00;;;;;24.78;46.01;101840.44;4999952;28;46947;-59
2021/06/07 00:15:42;;;;;;;;;11.33;10.33;;;;;24.78;45.74;101836.91;5001823;28;45354;-59
2021/06/07 00:18:07;;;;;;;;;12.00;12.00;;;;;24.78;46.33;101831.59;5001974;28;45426;-59
2021/06/07 00:20:42;;;;;;;;;14.00;11.00;;;;;24.78;45.71;101831.59;5000619;28;45506;-59
2021/06/07 00:23:10;;;;;;;;;9.67;9.67;;;;;24.76;45.72;101823.72;5001559;28;45288;-59
2021/06/07 00:25:36;;;;;;;;;12.33;10.00;;;;;24.77;46.00;101828.09;5001737;28;45328;-59
2021/06/07 00:28:02;;;;;;;;;12.67;11.33;;;;;24.76;46.19;101823.72;5000476;28;45483;-60
2021/06/07 00:30:27;;;;;;;;;11.00;11.00;;;;;24.76;45.95;101821.06;5001906;28;45435;-59
2021/06/07 00:32:53;;;;;;;;;12.33;10.00;;;;;24.76;45.97;101820.19;5000859;28;66435;-59
2021/06/07 00:35:22;;;;;;;;;10.67;10.67;;;;;24.75;45.86;101816.69;5001740;28;45279;-59
2021/06/07 00:37:48;;;;;;;;;9.67;9.33;;;;;24.75;45.47;101815.81;5001452;28;45271;-59
2021/06/07 00:40:14;;;;;;;;;10.67;10.67;;;;;24.74;45.95;101814.97;5000585;28;45490;-59
2021/06/07 00:42:40;;;;;;;;;10.33;9.33;;;;;24.73;45.76;101815.91;5001387;28;45430;-58
2021/06/07 00:45:08;;;;;;;;;13.00;11.67;;;;;24.73;46.12;101812.38;5001405;28;45414;-58
2021/06/07 00:47:34;;;;;;;;;11.00;9.67;;;;;24.73;46.07;101825.66;5001363;28;45303;-58
2021/06/07 00:49:59;;;;;;;;;8.00;8.00;;;;;24.73;45.86;101823.00;5017739;28;45320;-58
2021/06/07 00:52:25;;;;;;;;;9.67;9.67;;;;;24.72;45.87;101811.50;5003447;28;46049;-58
2021/06/07 00:54:50;;;;;;;;;8.67;8.67;;;;;24.73;45.69;101820.34;5004912;28;45492;-58
2021/06/07 00:57:16;;;;;;;;;11.00;10.00;;;;;24.71;45.82;101823.06;5002825;28;45242;-58
2021/06/07 00:59:41;;;;;;;;;10.67;10.67;;;;;24.71;46.04;101817.75;5004582;28;50761;-58
2021/06/07 01:02:06;;;;;;;;;11.33;9.67;;;;;24.71;45.86;101816.91;5002936;28;57978;-58
2021/06/07 01:04:32;;;;;;;;;10.33;10.00;;;;;24.71;46.14;101822.22;5004088;28;64900;-58
2021/06/07 01:06:57;;;;;;;;;11.00;11.00;;;;;24.71;45.75;101819.56;5003115;28;54713;-58
2021/06/07 01:09:23;;;;;;;;;10.00;10.00;;;;;24.70;45.98;101817.81;5004264;28;45324;-59
2021/06/07 01:11:48;;;;;;;;;8.67;7.33;;;;;24.69;45.76;101819.56;5001960;28;50703;-59
2021/06/07 01:14:13;;;;;;;;;9.00;9.00;;;;;24.69;45.84;101813.41;5004525;28;45253;-59
2021/06/07 01:16:38;;;;;;;;;10.00;8.00;;;;;24.69;45.81;101811.63;5004206;28;53623;-59
2021/06/07 01:19:05;;;;;;;;;11.00;11.00;;;;;24.69;45.89;101816.06;5002766;28;45316;-59
2021/06/07 01:21:30;;;;;;;;;8.00;8.00;;;;;24.69;45.86;101816.06;5003071;28;45773;-58
2021/06/07 01:23:56;;;;;;;;;11.33;10.00;;;;;24.68;45.72;101820.50;5004137;28;45460;-59
2021/06/07 01:26:23;;;;;;;;;9.00;9.00;;;;;24.68;46.26;101823.16;5004552;28;46541;-59
2021/06/07 01:28:50;;;;;;;;;9.67;9.67;;;;;24.67;45.98;101824.09;5004330;28;45250;-59
2021/06/07 01:31:15;;;;;;;;;9.67;9.67;;;;;24.67;45.77;101824.09;5019259;28;45200;-58
2021/06/07 01:33:44;;;;;;;;;11.33;10.33;;;;;24.66;45.76;101823.22;5004215;28;45241;-58
2021/06/07 01:36:10;;;;;;;;;10.33;10.33;;;;;24.65;45.83;101812.69;5004479;28;45475;-58
2021/06/07 01:38:35;;;;;;;;;9.67;9.33;;;;;24.65;45.83;101815.34;5035568;28;45555;-58
2021/06/07 01:41:03;;;;;;;;;10.67;10.67;;;;;24.65;45.72;101815.34;5003974;28;45619;-58
2021/06/07 01:43:30;;;;;;;;;10.00;9.33;;;;;24.64;46.14;101816.28;5004312;28;45269;-58
2021/06/07 01:45:55;;;;;;;;;7.00;7.00;;;;;24.64;45.99;101817.13;5004037;28;45316;-58
2021/06/07 01:48:22;;;;;;;;;8.67;8.67;;;;;24.63;45.93;101812.75;5003180;28;45379;-58
2021/06/07 01:50:49;;;;;;;;;10.00;10.00;;;;;24.63;46.13;101814.56;5002544;28;47259;-58
2021/06/07 01:53:15;;;;;;;;;10.67;10.67;;;;;24.62;45.90;101811.03;5003897;28;45473;-58
2021/06/07 01:55:49;;;;;;;;;10.00;9.00;;;;;24.62;45.73;101812.84;5002665;28;45361;-57
2021/06/07 01:58:17;;;;;;;;;12.00;11.00;;;;;24.62;46.14;101813.69;5002874;28;45329;-59
2021/06/07 02:00:42;;;;;;;;;10.00;10.00;;;;;24.61;45.95;101817.25;5003549;28;45258;-58
2021/06/07 02:03:08;;;;;;;;;9.67;9.00;;;;;24.60;46.29;101806.72;5017951;28;45253;-59
2021/06/07 02:05:40;;;;;;;;;6.67;6.67;;;;;24.60;46.00;101812.88;5004020;28;45272;-59
2021/06/07 02:08:08;;;;;;;;;11.00;9.33;;;;;24.60;45.70;101806.72;5018411;28;45320;-58
2021/06/07 02:10:37;;;;;;;;;10.00;10.00;;;;;24.60;46.04;101806.72;5003272;28;45439;-59
2021/06/07 02:13:05;;;;;;;;;8.67;8.67;;;;;24.59;46.21;101808.50;5018713;28;45419;-59
2021/06/07 02:15:31;;;;;;;;;10.33;8.67;;;;;24.58;45.85;101806.78;5002634;28;45366;-59
2021/06/07 02:18:10;;;;;;;;;8.33;8.00;;;;;24.58;45.93;101806.78;5003398;28;45339;-58
2021/06/07 02:20:37;;;;;;;;;7.00;7.00;;;;;24.58;45.83;101806.78;5002064;28;46343;-58
2021/06/07 02:23:03;;;;;;;;;10.67;9.00;;;;;24.58;45.91;101803.28;5003365;28;45406;-59
2021/06/07 02:25:28;;;;;;;;;11.00;9.33;;;;;24.58;46.00;101811.22;5003877;28;45351;-58
2021/06/07 02:27:54;;;;;;;;;9.00;8.33;;;;;24.56;45.99;101805.13;5003689;28;45396;-58
2021/06/07 02:30:23;;;;;;;;;9.00;9.00;;;;;24.56;46.13;101806.00;5002395;28;46146;-58
2021/06/07 02:32:49;;;;;;;;;8.00;8.00;;;;;24.55;45.88;101806.94;5002807;28;45240;-58
2021/06/07 02:35:16;;;;;;;;;8.00;8.00;;;;;24.55;46.20;101804.28;5003746;28;45316;-58
2021/06/07 02:37:43;;;;;;;;;8.00;8.00;;;;;24.55;45.90;101803.41;5003055;28;45216;-58
2021/06/07 02:40:10;;;;;;;;;9.00;9.00;;;;;24.55;45.92;101806.94;5003214;28;46351;-58
2021/06/07 02:42:37;;;;;;;;;7.67;7.33;;;;;24.54;45.92;101805.22;5002984;28;45317;-58
2021/06/07 02:45:08;;;;;;;;;8.00;8.00;;;;;24.54;45.99;101807.88;5003068;28;45313;-57
2021/06/07 02:47:33;;;;;;;;;8.00;6.67;;;;;24.54;45.85;101814.94;5003219;28;45485;-58
2021/06/07 02:49:59;;;;;;;;;8.67;8.67;;;;;24.53;45.91;101803.47;5003143;28;46570;-58
2021/06/07 02:52:24;;;;;;;;;7.33;7.33;;;;;24.53;46.01;101811.44;5002734;28;45441;-58
2021/06/07 02:54:50;;;;;;;;;8.00;8.00;;;;;24.53;45.63;101806.13;5002646;28;60669;-59
2021/06/07 02:57:15;;;;;;;;;8.00;8.00;;;;;24.53;45.97;101818.53;5003229;28;45355;-58
2021/06/07 02:59:41;;;;;;;;;8.67;8.33;;;;;24.52;46.04;101815.03;5002502;28;62646;-58
2021/06/07 03:02:06;;;;;;;;;10.00;8.33;;;;;24.52;45.99;101809.72;5002911;28;45313;-58
2021/06/07 03:04:32;;;;;;;;;10.00;10.00;;;;;24.52;45.89;101815.03;5003433;28;45261;-58
2021/06/07 03:06:57;;;;;;;;;8.33;8.00;;;;;24.50;45.83;101815.06;5018171;28;50195;-58
2021/06/07 03:09:23;;;;;;;;;8.00;6.33;;;;;24.49;46.03;101816.03;5002522;28;53261;-58
2021/06/07 03:11:48;;;;;;;;;8.33;8.00;;;;;24.49;46.00;101816.03;5002955;28;45233;-58
2021/06/07 03:14:13;;;;;;;;;10.00;10.00;;;;;24.49;45.70;101821.34;5002636;28;45169;-58
2021/06/07 03:16:39;;;;;;;;;7.67;7.33;;;;;24.49;46.07;101821.34;5002952;28;45510;-58
2021/06/07 03:19:05;;;;;;;;;7.67;7.67;;;;;24.49;45.74;101823.09;5002680;28;45341;-58
2021/06/07 03:21:31;;;;;;;;;8.67;8.67;;;;;24.49;45.78;101817.81;5002443;28;50162;-58
2021/06/07 03:23:56;;;;;;;;;6.67;6.33;;;;;24.48;46.01;101816.97;5002702;28;45241;-58
2021/06/07 03:26:22;;;;;;;;;9.00;8.33;;;;;24.47;46.17;101815.22;5001358;28;45334;-58
2021/06/07 03:28:47;;;;;;;;;10.00;8.33;;;;;24.47;45.67;101815.22;5002620;28;46013;-59
2021/06/07 03:31:13;;;;;;;;;6.00;5.00;;;;;24.47;46.03;101815.22;5002646;28;45375;-59
2021/06/07 03:33:38;;;;;;;;;9.00;8.00;;;;;24.46;46.00;101807.31;5002774;28;45461;-58
2021/06/07 03:36:05;;;;;;;;;8.00;8.00;;;;;24.45;45.93;101809.13;5002149;28;56053;-58
2021/06/07 03:38:32;;;;;;;;;6.33;6.33;;;;;24.46;45.89;101809.97;5002021;28;46344;-58
2021/06/07 03:40:58;;;;;;;;;9.00;9.00;;;;;24.45;45.99;101809.13;5002440;28;45379;-58
2021/06/07 03:43:27;;;;;;;;;10.67;8.33;;;;;24.45;45.92;101806.47;5002612;28;45419;-59
2021/06/07 03:45:52;;;;;;;;;8.00;8.00;;;;;24.44;46.31;101810.06;5002358;28;45291;-58
2021/06/07 03:48:18;;;;;;;;;9.00;8.00;;;;;24.44;46.08;101810.06;5001883;28;58939;-58
2021/06/07 03:50:43;;;;;;;;;8.33;7.33;;;;;24.45;45.77;101808.25;5002108;28;45356;-61
2021/06/07 03:53:09;;;;;;;;;7.33;7.33;;;;;24.44;46.05;101810.06;5017439;28;45336;-59
2021/06/07 03:55:35;;;;;;;;;10.33;8.67;;;;;24.43;46.01;101797.72;5002403;28;45344;-59
2021/06/07 03:58:02;;;;;;;;;6.67;6.67;;;;;24.43;45.81;101796.88;5001936;28;45372;-59
2021/06/07 04:00:29;;;;;;;;;6.67;6.00;;;;;24.44;45.99;101809.16;5017066;28;45278;-59
2021/06/07 04:02:56;;;;;;;;;9.00;8.67;;;;;24.43;46.26;101802.16;5000719;28;45254;-59
2021/06/07 04:05:21;;;;;;;;;6.33;6.00;;;;;24.42;45.96;101798.63;5002083;28;45659;-59
2021/06/07 04:07:47;;;;;;;;;7.00;7.00;;;;;24.42;45.94;101796.00;5001196;28;61337;-58
2021/06/07 04:10:16;;;;;;;;;10.00;8.00;;;;;24.42;45.89;101806.59;5001649;28;45343;-59
2021/06/07 04:12:42;;;;;;;;;5.33;4.33;;;;;24.41;46.00;101807.53;5001805;28;45328;-59
2021/06/07 04:15:08;;;;;;;;;7.67;7.67;;;;;24.41;46.18;101804.03;5001858;28;45610;-59
2021/06/07 04:17:34;;;;;;;;;10.67;9.00;;;;;24.41;45.97;101802.22;5000316;28;47149;-58
2021/06/07 04:20:00;;;;;;;;;7.67;7.67;;;;;24.41;45.95;101807.53;5001789;28;45247;-59
2021/06/07 04:22:26;;;;;;;;;6.00;6.00;;;;;24.40;46.21;101805.81;5001811;28;45280;-58
2021/06/07 04:24:51;;;;;;;;;8.67;8.67;;;;;24.40;46.14;101799.66;5002491;28;45222;-58
2021/06/07 04:27:17;;;;;;;;;6.33;6.33;;;;;24.40;45.96;101808.44;5005302;28;46093;-59
2021/06/07 04:29:43;;;;;;;;;6.00;6.00;;;;;24.40;45.91;101810.25;5004659;28;61455;-59
2021/06/07 04:32:10;;;;;;;;;6.00;6.00;;;;;24.40;45.90;101802.31;5005595;28;45332;-61
2021/06/07 04:34:35;;;;;;;;;10.00;8.00;;;;;24.40;46.44;101808.44;5005518;28;45549;-59
2021/06/07 04:37:01;;;;;;;;;7.33;7.33;;;;;24.40;46.25;101795.19;5020535;28;45490;-59
2021/06/07 04:39:26;;;;;;;;;7.67;7.67;;;;;24.40;45.66;101800.50;5004791;28;45319;-60
2021/06/07 04:41:52;;;;;;;;;7.33;7.33;;;;;24.40;45.74;101803.16;5004815;28;63312;-58
2021/06/07 04:44:17;;;;;;;;;10.00;8.00;;;;;24.39;46.35;101803.22;5003312;28;51431;-58
2021/06/07 04:46:43;;;;;;;;;7.33;6.33;;;;;24.39;45.80;101800.56;5004957;28;48987;-58
2021/06/07 04:49:08;;;;;;;;;9.00;8.00;;;;;24.39;45.92;101803.22;5005129;28;45273;-58
2021/06/07 04:51:34;;;;;;;;;8.00;5.33;;;;;24.39;46.28;101801.41;5005058;28;45466;-58
2021/06/07 04:53:59;;;;;;;;;7.67;7.67;;;;;24.39;46.04;101808.53;5004725;28;45435;-58
2021/06/07 04:56:25;;;;;;;;;7.67;7.67;;;;;24.39;45.68;101805.88;5004697;28;46252;-58
2021/06/07 04:58:50;;;;;;;;;6.67;6.67;;;;;24.39;46.28;101805.88;5002807;28;59785;-58
2021/06/07 05:01:16;;;;;;;;;7.00;7.00;;;;;24.39;46.25;101805.88;5004078;28;58264;-58
2021/06/07 05:03:42;;;;;;;;;6.00;6.00;;;;;24.38;46.04;101805.00;5004800;28;45257;-58
2021/06/07 05:06:08;;;;;;;;;6.33;6.33;;;;;24.38;45.80;101810.31;5019731;28;46211;-59
2021/06/07 05:08:33;;;;;;;;;7.00;6.00;;;;;24.38;45.92;101805.00;5004414;28;45447;-59
2021/06/07 05:10:59;;;;;;;;;7.00;7.00;;;;;24.39;45.85;101805.88;5004880;28;45330;-58
2021/06/07 05:13:25;;;;;;;;;7.33;7.33;;;;;24.39;46.17;101811.19;5004903;28;45468;-59
2021/06/07 05:15:51;;;;;;;;;6.00;6.00;;;;;24.38;45.95;101806.81;5004649;28;46241;-59
2021/06/07 05:18:17;;;;;;;;;5.00;5.00;;;;;24.38;45.62;101810.31;5004341;28;45331;-58
2021/06/07 05:20:43;;;;;;;;;7.67;6.33;;;;;24.38;45.90;101812.97;5003401;28;45280;-59
2021/06/07 05:23:10;;;;;;;;;6.00;6.00;;;;;24.38;46.12;101820.06;5019922;28;45257;-59
2021/06/07 05:25:36;;;;;;;;;7.00;7.00;;;;;24.38;45.87;101809.47;5003199;28;46290;-59
2021/06/07 05:28:04;;;;;;;;;7.00;7.00;;;;;24.38;45.96;101809.47;5004363;28;45244;-58
2021/06/07 05:30:31;;;;;;;;;7.00;7.00;;;;;24.38;46.01;101814.75;5003247;28;45317;-65
2021/06/07 05:32:56;;;;;;;;;5.00;5.00;;;;;24.38;46.00;101814.75;5004370;28;45411;-58
2021/06/07 05:35:25;;;;;;;;;7.00;5.67;;;;;24.38;45.79;101814.75;5002102;28;45469;-58
2021/06/07 05:37:50;;;;;;;;;6.33;6.00;;;;;24.38;46.31;101807.66;5015457;28;45288;-58
2021/06/07 05:40:18;;;;;;;;;7.00;7.00;;;;;24.38;46.33;101807.66;5004310;28;45255;-58
2021/06/07 05:42:44;;;;;;;;;6.33;6.33;;;;;24.38;46.84;101809.47;5019690;28;45461;-59
2021/06/07 05:45:11;;;;;;;;;9.33;9.00;;;;;24.39;47.00;101813.84;5019236;28;45500;-58
2021/06/07 05:47:37;;;;;;;;;8.00;8.00;;;;;24.39;47.02;101811.19;5003744;28;46296;-58
2021/06/07 05:50:05;;;;;;;;;6.00;6.00;;;;;24.39;47.01;101816.50;5004250;28;45354;-58
2021/06/07 05:52:30;;;;;;;;;7.67;7.00;;;;;24.39;47.37;101816.50;5018656;28;45440;-59
2021/06/07 05:54:56;;;;;;;;;7.67;7.67;;;;;24.40;46.97;101823.53;5016914;28;66746;-59
2021/06/07 05:57:21;;;;;;;;;8.00;8.00;;;;;24.41;46.75;101819.94;5003161;28;59004;-59
2021/06/07 05:59:46;;;;;;;;;9.33;7.00;;;;;24.42;46.80;101825.16;5004036;28;45779;-61
2021/06/07 06:02:12;;;;;;;;;7.00;7.00;;;;;24.44;47.21;101823.31;5001410;28;45431;-58
2021/06/07 06:04:40;;;;;;;;;11.00;6.33;;;;;24.44;47.12;101818.00;5003346;28;45413;-58
2021/06/07 06:07:06;;;;;;;;;6.00;6.00;;;;;24.47;47.07;101822.31;5003582;28;45360;-60
2021/06/07 06:09:32;;;;;;;;;5.00;5.00;;;;;24.48;46.72;101824.03;5003504;28;45359;-59
2021/06/07 06:11:57;;;;;;;;;5.67;5.67;;;;;24.48;46.73;101822.25;5002755;28;45472;-58
2021/06/07 06:14:26;;;;;;;;;9.00;7.00;;;;;24.50;47.10;101824.84;5003155;28;45488;-59
2021/06/07 06:16:52;;;;;;;;;7.33;7.33;;;;;24.50;46.96;101822.19;5003039;28;45432;-56
2021/06/07 06:19:17;;;;;;;;;8.00;6.00;;;;;24.50;47.25;101822.19;5003251;28;45241;-57
2021/06/07 06:21:42;;;;;;;;;8.67;7.00;;;;;24.50;47.09;101827.50;5003767;28;45355;-58
2021/06/07 06:24:10;;;;;;;;;8.00;7.00;;;;;24.50;46.75;101824.84;5001600;28;47219;-58
2021/06/07 06:26:37;;;;;;;;;6.33;6.33;;;;;24.50;47.10;101827.50;5001977;28;45285;-58
2021/06/07 06:29:04;;;;;;;;;8.67;7.67;;;;;24.51;47.30;101826.56;5000870;28;45444;-58
2021/06/07 06:31:29;;;;;;;;;8.00;6.33;;;;;24.51;46.88;101827.41;5003501;28;45516;-59
2021/06/07 06:33:55;;;;;;;;;8.00;6.00;;;;;24.52;47.06;101828.28;5003020;28;46605;-58
2021/06/07 06:36:20;;;;;;;;;6.00;6.00;;;;;24.54;46.98;101837.06;5003245;28;45276;-58
2021/06/07 06:38:46;;;;;;;;;7.00;6.00;;;;;24.55;46.40;101830.81;4999533;28;50014;-59
2021/06/07 06:41:12;;;;;;;;;8.00;7.33;;;;;24.57;46.72;101830.72;5000975;28;45415;-59
2021/06/07 06:43:38;;;;;;;;;5.00;5.00;;;;;24.59;46.91;101824.41;5002206;28;46002;-59
2021/06/07 06:46:03;;;;;;;;;8.00;7.00;;;;;24.61;46.63;101827.88;5002501;28;45273;-58
2021/06/07 06:48:31;;;;;;;;;12.00;10.33;;;;;24.63;46.72;101830.47;5001843;28;45362;-58
2021/06/07 06:50:57;;;;;;;;;98.75;81.50;;;;;24.65;46.61;101823.31;5002911;28;45457;-59
2021/06/07 06:53:23;;;;;;;;;76.75;56.75;;;;;24.67;46.55;101826.75;5017445;28;45359;-58
2021/06/07 06:55:49;;;;;;;;;35.75;30.25;;;;;24.69;46.22;101821.38;5002840;28;45349;-58
2021/06/07 06:58:15;;;;;;;;;17.33;14.00;;;;;24.71;46.36;101819.56;5002357;28;45434;-59
2021/06/07 07:00:41;;;;;;;;;10.00;10.00;;;;;24.71;46.62;101823.06;5001391;28;45363;-58
2021/06/07 07:03:09;;;;;;;;;8.33;8.33;;;;;24.73;46.26;101823.84;5002503;28;47317;-59
2021/06/07 07:05:36;;;;;;;;;129.00;106.50;;;;;24.74;46.25;101822.94;5002397;28;45731;-58
2021/06/07 07:08:01;;;;;;;;;72.50;53.50;;;;;24.75;46.23;101819.34;5002520;28;45498;-58
2021/06/07 07:10:27;;;;;;;;;37.00;30.50;;;;;24.77;46.79;101822.78;5015145;28;45380;-58
2021/06/07 07:12:52;;;;;;;;;19.67;15.67;;;;;24.79;46.28;101826.25;5001771;28;46287;-58
2021/06/07 07:15:18;;;;;;;;;12.67;11.67;;;;;24.81;46.54;101823.50;5000968;28;55623;-58
2021/06/07 07:17:45;;;;;;;;;10.67;9.67;;;;;24.83;46.33;101828.75;5001170;28;45429;-58
2021/06/07 07:20:10;;;;;;;;;14.00;13.33;;;;;24.85;46.15;101827.75;5002589;28;45252;-58
2021/06/07 07:22:36;;;;;;;;;58.75;43.00;;;;;24.86;46.35;101829.50;5001818;28;45933;-60
2021/06/07 07:25:02;;;;;;;;;66.50;50.00;;;;;24.86;46.27;101832.16;5002499;28;45314;-59
2021/06/07 07:27:28;;;;;;;;;62.00;45.00;;;;;24.87;46.51;101831.22;5002254;28;45607;-59
2021/06/07 07:29:55;;;;;;;;;24.33;21.67;;;;;24.89;46.16;101831.97;5001579;28;45623;-59
2021/06/07 07:32:21;;;;;;;;;16.00;14.00;;;;;24.91;46.45;101830.13;5000802;28;46017;-59
2021/06/07 07:34:47;;;;;;;;;13.00;11.33;;;;;24.92;46.36;101826.53;5002250;28;45289;-59
2021/06/07 07:37:12;;;;;;;;;8.67;8.67;;;;;24.93;46.55;101828.25;5002271;28;45423;-59
2021/06/07 07:39:38;;;;;;;;;8.00;7.00;;;;;24.94;46.44;101821.19;5013992;28;54099;-59
2021/06/07 07:42:05;;;;;;;;;7.33;7.00;;;;;24.95;46.10;101823.75;5001582;28;45308;-59
2021/06/07 07:44:30;;;;;;;;;30.67;26.00;;;;;24.96;46.29;101827.25;5001714;28;45508;-59
2021/06/07 07:46:56;;;;;;;;;66.75;48.75;;;;;24.97;46.29;101821.00;5017155;28;45486;-59
2021/06/07 07:49:21;;;;;;;;;28.00;24.33;;;;;24.99;45.92;101828.94;5002137;28;45323;-59
2021/06/07 07:51:47;;;;;;;;;15.33;14.00;;;;;25.00;46.27;101828.00;5000998;28;46094;-59
2021/06/07 07:54:13;;;;;;;;;9.67;9.67;;;;;25.00;46.32;101820.88;5001745;28;45426;-59
2021/06/07 07:56:38;;;;;;;;;10.00;9.67;;;;;25.02;46.37;101828.78;5001957;28;45375;-59
2021/06/07 07:59:04;;;;;;;;;85.00;67.75;;;;;25.03;46.31;101822.56;4999994;28;45520;-59
2021/06/07 08:01:29;;;;;;;;;39.75;31.50;;;;;25.03;46.32;101826.06;5008717;28;61506;-59
2021/06/07 08:03:55;;;;;;;;;23.33;20.33;;;;;25.05;46.10;101820.66;5001904;28;45319;-60
2021/06/07 08:06:20;;;;;;;;;13.00;12.33;;;;;25.07;46.27;101829.44;5000014;28;45400;-59
2021/06/07 08:08:46;;;;;;;;;9.67;9.33;;;;;25.07;46.32;101824.09;5001326;28;45552;-59
2021/06/07 08:11:12;;;;;;;;;7.00;7.00;;;;;25.08;46.09;101824.06;4992187;28;46577;-59
2021/06/07 08:13:38;;;;;;;;;47.50;35.25;;;;;25.09;45.86;101824.91;5001287;28;45464;-58
2021/06/07 08:16:04;;;;;;;;;87.75;67.25;;;;;25.10;46.05;101819.53;5001684;28;45471;-58
2021/06/07 08:18:30;;;;;;;;;43.25;34.75;;;;;25.11;46.05;101820.38;5000815;28;45555;-58
2021/06/07 08:20:55;;;;;;;;;20.67;14.67;;;;;25.13;46.12;101825.63;4999438;28;67040;-58
2021/06/07 08:23:20;;;;;;;;;15.33;11.67;;;;;25.14;45.93;101819.38;5001630;28;45300;-58
2021/06/07 08:25:46;;;;;;;;;10.00;10.00;;;;;25.13;45.80;101818.53;5001688;28;45395;-58
2021/06/07 08:28:11;;;;;;;;;8.33;8.33;;;;;25.15;45.81;101815.78;5001783;28;45511;-58
2021/06/07 08:30:37;;;;;;;;;6.67;6.33;;;;;25.14;45.68;101817.59;5001361;28;46898;-58
2021/06/07 08:33:03;;;;;;;;;8.33;7.00;;;;;25.16;46.01;101817.50;5001486;28;45246;-58
2021/06/07 08:35:29;;;;;;;;;8.00;8.00;;;;;25.16;45.83;101815.75;5001442;28;45412;-58
2021/06/07 08:37:55;;;;;;;;;8.00;7.00;;;;;25.17;45.82;101819.25;5001272;28;45440;-59
2021/06/07 08:40:21;;;;;;;;;8.00;8.00;;;;;25.18;45.81;101818.31;4998255;28;46148;-59
2021/06/07 08:42:47;;;;;;;;;60.50;47.00;;;;;25.19;45.75;101812.06;4999603;28;45424;-59
2021/06/07 08:45:15;;;;;;;;;122.00;95.00;;;;;25.19;46.01;101812.06;5001364;28;45405;-59
2021/06/07 08:47:42;;;;;;;;;50.75;39.50;;;;;25.20;45.88;101816.44;4999956;28;45379;-58
2021/06/07 08:50:09;;;;;;;;;26.67;19.00;;;;;25.20;46.12;101821.75;5001095;28;46267;-59
2021/06/07 08:52:35;;;;;;;;;15.33;12.00;;;;;25.21;45.76;101818.16;4999234;28;45405;-58
2021/06/07 08:55:04;;;;;;;;;11.33;11.00;;;;;25.22;45.68;101818.09;4983350;28;45553;-59
2021/06/07 08:57:29;;;;;;;;;8.00;8.00;;;;;25.23;45.84;101811.00;4999873;28;45534;-58
2021/06/07 08:59:54;;;;;;;;;73.50;53.25;;;;;25.23;45.64;101818.97;4999636;28;61379;-59
2021/06/07 09:02:37;;;;;;;;;48.25;37.75;;;;;25.25;45.70;101809.13;5022135;28;45287;-60
2021/06/07 09:05:04;;;;;;;;;22.67;18.67;;;;;25.25;45.83;101819.75;4983525;28;45300;-59
2021/06/07 09:07:30;;;;;;;;;14.00;12.67;;;;;25.24;45.58;101810.91;5000731;28;45559;-60
2021/06/07 09:10:11;;;;;;;;;10.00;10.00;;;;;25.27;45.72;101820.53;4998249;28;46154;-59
2021/06/07 09:12:38;;;;;;;;;9.33;9.33;;;;;25.27;45.86;101816.09;5002475;28;45387;-58
2021/06/07 09:15:04;;;;;;;;;10.33;9.00;;;;;25.27;45.95;101816.09;5004536;28;45466;-59
2021/06/07 09:17:29;;;;;;;;;8.33;8.33;;;;;25.27;45.47;101816.09;5004288;28;45407;-58
2021/06/07 09:20:14;;;;;;;;;7.00;7.00;;;;;25.28;45.71;101816.94;5004422;28;45237;-58
2021/06/07 09:22:47;;;;;;;;;8.00;7.00;;;;;25.29;45.91;101807.19;5004049;28;45243;-61
2021/06/07 09:25:14;;;;;;;;;6.33;6.33;;;;;25.30;45.50;101812.41;5004447;28;45252;-58
2021/06/07 09:28:01;;;;;;;;;6.00;5.33;;;;;25.30;45.35;101815.06;5004308;28;45311;-58
2021/06/07 09:30:30;;;;;;;;;7.33;6.33;;;;;25.31;45.83;101818.59;5003515;28;45185;-58
2021/06/07 09:33:23;;;;;;;;;81.25;63.25;;;;;25.32;45.75;101823.00;5003974;28;45369;-59
2021/06/07 09:36:05;;;;;;;;;161.67;126.00;;;;;25.33;45.61;101824.72;5004421;28;45340;-60
2021/06/07 09:38:30;;;;;;;;;104.00;79.75;;;;;25.33;45.45;101820.25;4996366;28;45313;-59
2021/06/07 09:41:02;;;;;;;;;50.75;37.25;;;;;25.34;45.52;101821.09;5001009;28;45345;-60
2021/06/07 09:43:47;;;;;;;;;20.67;17.33;;;;;25.35;45.38;101822.81;5003721;28;45429;-59
2021/06/07 09:46:12;;;;;;;;;11.33;11.33;;;;;25.36;45.40;101827.19;4993295;28;45340;-60
2021/06/07 09:48:38;;;;;;;;;11.00;11.00;;;;;25.36;45.38;101825.41;5003798;28;45991;-59
2021/06/07 09:51:03;;;;;;;;;9.67;9.67;;;;;25.37;45.48;101816.53;5003255;28;63229;-59
2021/06/07 09:53:54;;;;;;;;;9.33;8.33;;;;;25.36;45.00;101817.44;5018832;28;45434;-60
2021/06/07 09:56:20;;;;;;;;;7.00;7.00;;;;;25.38;45.48;101818.25;5002637;28;45427;-60
2021/06/07 09:58:46;;;;;;;;;34.00;25.67;;;;;25.38;45.35;101814.72;5003804;28;45329;-60
2021/06/07 10:01:14;;;;;;;;;12.33;12.33;;;;;25.39;45.38;101822.63;5003361;28;46334;-61
2021/06/07 10:03:42;;;;;;;;;16.67;16.00;;;;;25.40;45.37;101812.84;5002014;28;45294;-61
2021/06/07 10:06:19;;;;;;;;;10.67;10.00;;;;;25.41;45.36;101806.59;5003465;28;45336;-61
2021/06/07 10:08:46;;;;;;;;;7.33;7.33;;;;;25.42;45.41;101816.31;5003847;28;45379;-61
2021/06/07 10:11:23;;;;;;;;;9.33;8.00;;;;;25.41;45.37;101807.47;4999530;28;45570;-61
2021/06/07 10:13:51;;;;;;;;;8.00;8.00;;;;;25.42;45.20;101811.84;5003319;28;45176;-61
2021/06/07 10:16:17;;;;;;;;;9.00;7.00;;;;;25.44;45.14;101805.59;5002284;28;45325;-61
2021/06/07 10:18:43;;;;;;;;;8.00;7.00;;;;;25.44;45.14;101805.59;5003548;28;45297;-63
2021/06/07 10:21:10;;;;;;;;;7.67;7.00;;;;;25.45;45.07;101813.53;5001950;28;45868;-61
2021/06/07 10:23:37;;;;;;;;;7.00;7.00;;;;;25.45;45.20;101808.22;5001569;28;45406;-61
2021/06/07 10:26:04;;;;;;;;;5.00;5.00;;;;;25.45;45.14;101805.56;4999771;28;45398;-61
2021/06/07 10:28:32;;;;;;;;;5.00;5.00;;;;;25.47;45.51;101805.47;5002016;28;45475;-61
2021/06/07 10:31:08;;;;;;;;;5.00;5.00;;;;;25.47;45.26;101803.69;5002493;28;45706;-61
2021/06/07 10:33:36;;;;;;;;;6.00;6.00;;;;;25.48;45.24;101808.06;5001987;28;45455;-61
2021/06/07 10:36:19;;;;;;;;;6.00;6.00;;;;;25.49;44.95;101803.59;5002927;28;45363;-60
2021/06/07 10:38:45;;;;;;;;;6.33;6.33;;;;;25.49;45.16;101799.13;5002550;28;45463;-62
2021/06/07 10:41:23;;;;;;;;;8.00;6.00;;;;;25.50;44.94;101800.00;5000090;28;45815;-61
2021/06/07 10:43:51;;;;;;;;;49.50;37.00;;;;;25.49;45.32;101796.47;5002348;28;45428;-61
2021/06/07 10:46:28;;;;;;;;;77.75;57.50;;;;;25.49;44.89;101799.13;5002733;28;45221;-61
2021/06/07 10:48:58;;;;;;;;;66.50;47.75;;;;;25.47;44.76;101793.06;5001612;28;45447;-61
2021/06/07 10:51:26;;;;;;;;;38.25;30.25;;;;;25.46;44.91;101796.66;5018176;28;45471;-60
2021/06/07 10:53:54;;;;;;;;;22.00;17.67;;;;;25.46;44.79;101793.13;5002235;28;45461;-61
2021/06/07 10:56:26;;;;;;;;;16.33;15.67;;;;;25.45;44.54;101796.72;5003009;28;45340;-61
2021/06/07 10:58:54;;;;;;;;;12.00;9.00;;;;;25.44;44.42;101800.28;5001881;28;45269;-60
2021/06/07 11:01:20;;;;;;;;;12.00;11.33;;;;;25.42;44.51;101792.41;5002772;28;45332;-62
2021/06/07 11:03:57;;;;;;;;;37.50;30.00;;;;;25.40;44.70;101800.44;5002260;28;45449;-60
2021/06/07 11:06:23;;;;;;;;;175.00;139.00;;;;;25.40;44.53;101791.59;5002701;28;45314;-60
2021/06/07 11:09:21;;;;;;;;;138.00;112.00;;;;;25.38;44.68;101799.66;5002674;28;45428;-60
2021/06/07 11:11:47;;;;;;;;;77.25;58.25;;;;;25.37;44.55;101792.59;4966059;28;45769;-61
2021/06/07 11:14:13;;;;;;;;;50.25;36.50;;;;;25.37;44.54;101789.06;5002120;28;46490;-60
2021/06/07 11:16:42;;;;;;;;;33.50;29.75;;;;;25.35;44.58;101788.28;4999080;28;45471;-61
2021/06/07 11:19:15;;;;;;;;;24.67;19.33;;;;;25.35;44.42;101780.31;5002199;28;45480;-61